createdAt,value
2019-04-01T00:02:27.753Z,0.98
2019-04-01T00:07:31.232Z,1.20
2019-04-01T00:12:34.706Z,1.12
2019-04-01T00:17:38.181Z,1.27
2019-04-01T00:22:41.758Z,1.25
2019-04-01T00:27:45.195Z,1.10
2019-04-01T00:32:48.663Z,1.25
2019-04-01T00:37:52.152Z,1.10
2019-04-01T00:42:59.915Z,1.10
2019-04-01T00:48:03.572Z,0.98
2019-04-01T00:53:07.042Z,1.20
2019-04-01T00:58:11.746Z,1.10
2019-04-01T01:03:15.220Z,1.20
2019-04-01T01:08:18.687Z,0.93
2019-04-01T01:13:22.159Z,1.10
2019-04-01T01:18:25.637Z,1.30
2019-04-01T01:23:29.116Z,1.22
2019-04-01T01:28:32.583Z,1.30
2019-04-01T01:33:36.060Z,1.00
2019-04-01T01:38:39.532Z,0.90
2019-04-01T01:43:43.004Z,1.10
2019-04-01T01:48:46.502Z,0.82
2019-04-01T01:53:49.946Z,0.90
2019-04-01T01:58:53.420Z,0.80
2019-04-01T02:03:56.909Z,1.15
2019-04-01T02:09:00.376Z,0.80
2019-04-01T02:14:03.857Z,1.00
2019-04-01T02:19:07.341Z,0.90
2019-04-01T02:24:10.812Z,0.83
2019-04-01T02:29:14.288Z,1.12
2019-04-01T02:34:17.791Z,0.90
2019-04-01T02:39:21.260Z,0.90
2019-04-01T02:44:24.731Z,0.88
2019-04-01T02:49:28.212Z,0.90
2019-04-01T02:54:31.702Z,1.10
2019-04-01T02:59:35.152Z,0.82
2019-04-01T03:04:38.623Z,0.83
2019-04-01T03:09:42.094Z,1.00
2019-04-01T03:14:45.566Z,0.55
2019-04-01T03:19:49.039Z,1.00
2019-04-01T03:24:52.510Z,0.87
2019-04-01T03:29:55.982Z,0.85
2019-04-01T03:34:59.437Z,0.88
2019-04-01T03:40:02.941Z,0.70
2019-04-01T03:45:06.826Z,0.68
2019-04-01T03:50:10.283Z,0.88
2019-04-01T03:55:13.734Z,0.72
2019-04-01T04:00:17.462Z,0.60
2019-04-01T04:05:21.184Z,0.90
2019-04-01T04:10:24.656Z,1.07
2019-04-01T04:15:28.093Z,0.90
2019-04-01T04:20:31.620Z,0.95
2019-04-01T04:25:35.245Z,0.90
2019-04-01T04:30:38.704Z,0.88
2019-04-01T04:35:42.162Z,0.65
2019-04-01T04:40:45.626Z,0.95
2019-04-01T04:45:49.082Z,0.73
2019-04-01T04:50:52.539Z,1.00
2019-04-01T04:55:55.993Z,0.90
2019-04-01T05:00:59.453Z,1.00
2019-04-01T05:06:02.918Z,0.75
2019-04-01T05:11:06.370Z,0.90
2019-04-01T05:16:09.827Z,1.40
2019-04-01T05:21:14.792Z,0.93
2019-04-01T05:26:20.016Z,0.80
2019-04-01T05:31:25.312Z,1.20
2019-04-01T05:36:29.007Z,0.70
2019-04-01T05:41:33.007Z,0.90
2019-04-01T05:46:36.633Z,1.05
2019-04-01T05:51:40.089Z,0.90
2019-04-01T05:56:43.557Z,0.82
2019-04-01T06:01:48.588Z,0.80
2019-04-01T06:06:52.050Z,0.70
2019-04-01T06:11:55.679Z,0.75
2019-04-01T06:16:59.214Z,0.88
2019-04-01T06:22:02.679Z,1.07
2019-04-01T06:27:06.404Z,0.50
2019-04-01T06:32:09.861Z,0.70
2019-04-01T06:37:13.316Z,1.10
2019-04-01T06:42:16.771Z,0.90
2019-04-01T06:47:20.596Z,0.82
2019-04-01T06:52:24.419Z,0.60
2019-04-01T06:57:27.875Z,0.60
2019-04-01T07:02:31.334Z,1.65
2019-04-01T07:07:34.793Z,1.47
2019-04-01T07:12:38.251Z,2.10
2019-04-01T07:17:42.542Z,1.80
2019-04-01T07:22:45.996Z,2.40
2019-04-01T07:27:49.453Z,2.72
2019-04-01T07:32:52.913Z,2.37
2019-04-01T07:37:56.368Z,2.15
2019-04-01T07:42:59.832Z,2.20
2019-04-01T07:48:03.459Z,2.10
2019-04-01T07:53:06.913Z,2.00
2019-04-01T07:58:10.643Z,2.10
2019-04-01T08:03:14.352Z,1.80
2019-04-01T08:08:17.873Z,2.08
2019-04-01T08:13:21.397Z,1.80
2019-04-01T08:18:25.020Z,1.82
2019-04-01T08:23:28.544Z,2.20
2019-04-01T08:28:32.025Z,2.02
2019-04-01T08:33:35.485Z,2.27
2019-04-01T08:38:38.952Z,1.85
2019-04-01T08:43:42.763Z,2.30
2019-04-01T08:48:46.241Z,2.20
2019-04-01T08:53:50.354Z,2.37
2019-04-01T08:58:53.893Z,2.10
2019-04-01T09:03:57.369Z,2.00
2019-04-01T09:09:04.526Z,2.12
2019-04-01T09:14:08.007Z,2.63
2019-04-01T09:19:11.487Z,1.98
2019-04-01T09:24:14.965Z,2.25
2019-04-01T09:29:18.441Z,1.87
2019-04-01T09:34:21.918Z,2.15
2019-04-01T09:39:25.392Z,2.12
2019-04-01T09:44:36.498Z,2.20
2019-04-01T09:49:34.064Z,1.60
2019-04-01T09:54:37.540Z,2.37
2019-04-01T09:59:41.018Z,1.70
2019-04-01T10:04:44.504Z,1.80
2019-04-01T10:09:47.978Z,1.85
2019-04-01T10:14:51.453Z,1.50
2019-04-01T10:19:54.934Z,1.82
2019-04-01T10:24:58.407Z,1.80
2019-04-01T10:30:01.889Z,2.05
2019-04-01T10:35:07.437Z,1.74
2019-04-01T10:40:11.447Z,1.50
2019-04-01T10:45:14.991Z,1.90
2019-04-01T10:50:18.952Z,1.70
2019-04-01T10:55:22.400Z,1.60
2019-04-01T11:00:25.955Z,1.33
2019-04-01T11:05:29.425Z,1.30
2019-04-01T11:10:32.871Z,1.30
2019-04-01T11:15:36.353Z,1.43
2019-04-01T11:20:39.842Z,1.30
2019-04-01T11:25:43.306Z,1.20
2019-04-01T11:30:46.802Z,1.45
2019-04-01T11:35:50.303Z,1.15
2019-04-01T11:40:53.817Z,1.00
2019-04-01T11:45:57.323Z,1.17
2019-04-01T11:51:00.888Z,1.15
2019-04-01T11:56:04.583Z,1.53
2019-04-01T12:01:08.120Z,1.70
2019-04-01T12:06:11.536Z,2.02
2019-04-01T12:11:15.004Z,2.20
2019-04-01T12:16:18.480Z,2.50
2019-04-01T12:21:21.963Z,2.83
2019-04-01T12:26:25.433Z,3.20
2019-04-01T12:31:28.909Z,3.35
2019-04-01T12:36:32.381Z,4.03
2019-04-01T12:41:35.852Z,4.00
2019-04-01T12:46:39.324Z,3.93
2019-04-01T12:51:42.871Z,4.28
2019-04-01T12:56:46.352Z,4.83
2019-04-01T13:01:49.978Z,5.25
2019-04-01T13:06:53.575Z,4.97
2019-04-01T13:11:57.043Z,4.67
2019-04-01T13:17:00.517Z,4.78
2019-04-01T13:22:03.988Z,4.53
2019-04-01T13:27:09.379Z,4.42
2019-04-01T13:32:13.656Z,3.95
2019-04-01T13:37:18.286Z,3.62
2019-04-01T13:42:24.809Z,3.33
2019-04-01T13:47:27.081Z,3.90
2019-04-01T13:52:32.057Z,3.95
2019-04-01T13:57:36.281Z,3.62
2019-04-01T14:02:39.757Z,3.92
2019-04-01T14:07:43.232Z,3.55
2019-04-01T14:12:46.702Z,4.50
2019-04-01T14:17:50.167Z,3.70
2019-04-01T14:22:53.795Z,3.70
2019-04-01T14:27:57.299Z,4.17
2019-04-01T14:33:00.763Z,4.10
2019-04-01T14:38:04.249Z,3.70
2019-04-01T14:43:07.718Z,3.40
2019-04-01T14:48:11.196Z,3.95
2019-04-01T14:53:14.659Z,3.47
2019-04-01T14:58:18.135Z,3.77
2019-04-01T15:03:21.609Z,3.92
2019-04-01T15:08:25.087Z,2.95
2019-04-01T15:13:28.566Z,3.62
2019-04-01T15:18:34.289Z,3.62
2019-04-01T15:23:37.247Z,3.35
2019-04-01T15:28:40.782Z,3.15
2019-04-01T15:33:44.261Z,3.65
2019-04-01T15:38:47.737Z,3.45
2019-04-01T15:43:51.215Z,3.10
2019-04-01T15:48:54.690Z,3.50
2019-04-01T15:54:01.263Z,3.52
2019-04-01T15:59:03.372Z,3.80
2019-04-01T16:04:08.470Z,3.55
2019-04-01T16:09:12.102Z,3.22
2019-04-01T16:14:18.999Z,3.90
2019-04-01T16:19:20.773Z,3.50
2019-04-01T16:24:24.252Z,3.47
2019-04-01T16:29:27.729Z,3.12
2019-04-01T16:34:31.200Z,3.52
2019-04-01T16:39:34.671Z,3.90
2019-04-01T16:44:38.140Z,2.77
2019-04-01T16:49:41.595Z,2.87
2019-04-01T16:54:48.111Z,3.25
2019-04-01T16:59:51.572Z,3.08
2019-04-01T17:04:55.031Z,3.20
2019-04-01T17:09:58.484Z,3.22
2019-04-01T17:15:03.681Z,3.20
2019-04-01T17:20:07.683Z,2.77
2019-04-01T17:25:11.197Z,3.30
2019-04-01T17:30:15.388Z,2.87
2019-04-01T17:35:18.919Z,2.80
2019-04-01T17:40:22.377Z,3.40
2019-04-01T17:45:34.506Z,2.42
2019-04-01T17:50:38.035Z,3.77
2019-04-01T17:55:41.568Z,2.55
2019-04-01T18:00:46.670Z,2.80
2019-04-01T18:05:50.134Z,2.45
2019-04-01T18:10:53.589Z,2.25
2019-04-01T18:15:57.591Z,2.58
2019-04-01T18:21:01.254Z,2.33
2019-04-01T18:26:04.953Z,2.30
2019-04-01T18:31:08.414Z,3.03
2019-04-01T18:36:12.346Z,2.80
2019-04-01T18:41:15.803Z,2.55
2019-04-01T18:46:21.000Z,2.55
2019-04-01T18:51:24.437Z,3.27
2019-04-01T18:56:28.988Z,2.50
2019-04-01T19:01:32.544Z,2.45
2019-04-01T19:06:36.091Z,1.92
2019-04-01T19:11:39.837Z,1.85
2019-04-01T19:16:43.298Z,2.12
2019-04-01T19:21:46.759Z,2.47
2019-04-01T19:26:50.223Z,2.37
2019-04-01T19:31:53.686Z,2.43
2019-04-01T19:36:58.880Z,1.93
2019-04-01T19:42:02.483Z,2.10
2019-04-01T19:47:06.923Z,2.47
2019-04-01T19:52:10.489Z,2.20
2019-04-01T19:57:13.950Z,1.75
2019-04-01T20:02:17.408Z,1.80
2019-04-01T20:07:20.871Z,2.42
2019-04-01T20:12:24.327Z,1.70
2019-04-01T20:17:27.782Z,2.00
2019-04-01T20:22:31.242Z,1.77
2019-04-01T20:27:34.697Z,2.08
2019-04-01T20:32:38.162Z,1.70
2019-04-01T20:37:41.652Z,1.80
2019-04-01T20:42:46.350Z,1.67
2019-04-01T20:47:50.398Z,1.60
2019-04-01T20:52:54.035Z,1.70
2019-04-01T20:57:57.501Z,1.42
2019-04-01T21:03:01.250Z,1.80
2019-04-01T21:08:05.332Z,1.72
2019-04-01T21:13:08.786Z,1.65
2019-04-01T21:18:12.246Z,1.90
2019-04-01T21:23:15.706Z,1.70
2019-04-01T21:28:19.170Z,1.75
2019-04-01T21:33:22.629Z,1.40
2019-04-01T21:38:26.087Z,1.90
2019-04-01T21:43:29.553Z,1.60
2019-04-01T21:48:33.011Z,2.00
2019-04-01T21:53:36.473Z,1.70
2019-04-01T21:58:39.927Z,1.40
2019-04-01T22:03:43.391Z,1.30
2019-04-01T22:08:46.847Z,1.50
2019-04-01T22:13:50.312Z,1.30
2019-04-01T22:18:53.768Z,1.55
2019-04-01T22:23:57.224Z,1.50
2019-04-01T22:29:00.680Z,1.20
2019-04-01T22:34:04.139Z,1.10
2019-04-01T22:39:07.662Z,1.27
2019-04-01T22:44:11.123Z,1.45
2019-04-01T22:49:14.583Z,1.57
2019-04-01T22:54:18.037Z,1.35
2019-04-01T22:59:21.491Z,1.25
2019-04-01T23:04:24.950Z,1.35
2019-04-01T23:09:29.036Z,1.22
2019-04-01T23:14:32.896Z,1.27
2019-04-01T23:19:36.345Z,1.47
2019-04-01T23:24:39.799Z,1.33
2019-04-01T23:29:43.257Z,1.02
2019-04-01T23:34:46.712Z,1.20
2019-04-01T23:39:50.169Z,0.90
2019-04-01T23:44:53.624Z,1.30
2019-04-01T23:49:57.080Z,1.25
2019-04-01T23:55:00.654Z,1.07
